createdAt,value
2018-12-13T00:02:52.017Z,106.57
2018-12-13T00:05:55.516Z,107.61
2018-12-13T00:08:59.026Z,107.73
2018-12-13T00:12:03.328Z,107.83
2018-12-13T00:15:06.893Z,108.36
2018-12-13T00:18:10.586Z,108.07
2018-12-13T00:21:14.306Z,107.99
2018-12-13T00:24:17.782Z,108.05
2018-12-13T00:27:21.313Z,108.02
2018-12-13T00:30:24.903Z,108.06
2018-12-13T00:33:28.462Z,108.29
2018-12-13T00:36:31.928Z,108.22
2018-12-13T00:39:35.444Z,108.25
2018-12-13T00:42:39.056Z,108.34
2018-12-13T00:45:42.577Z,108.26
2018-12-13T00:48:46.118Z,108.22
2018-12-13T00:51:49.792Z,108.06
2018-12-13T00:54:53.283Z,108.20
2018-12-13T00:57:56.787Z,108.86
2018-12-13T01:01:01.342Z,108.96
2018-12-13T01:04:04.875Z,108.95
2018-12-13T01:07:08.402Z,109.06
2018-12-13T01:10:12.258Z,108.90
2018-12-13T01:13:15.827Z,108.83
2018-12-13T01:16:24.633Z,108.78
2018-12-13T01:19:28.245Z,108.88
2018-12-13T01:22:31.771Z,108.70
2018-12-13T01:25:35.284Z,108.66
2018-12-13T01:28:38.899Z,108.63
2018-12-13T01:31:42.386Z,108.56
2018-12-13T01:34:45.877Z,108.59
2018-12-13T01:37:49.369Z,108.34
2018-12-13T01:40:52.944Z,108.25
2018-12-13T01:44:03.083Z,108.33
2018-12-13T01:47:06.684Z,108.25
2018-12-13T01:50:10.293Z,108.15
2018-12-13T01:53:13.923Z,107.99
2018-12-13T01:56:17.601Z,107.95
2018-12-13T01:59:21.044Z,107.83
2018-12-13T02:02:24.673Z,107.77
2018-12-13T02:05:28.124Z,107.74
2018-12-13T02:08:31.912Z,107.80
2018-12-13T02:11:35.468Z,107.91
2018-12-13T02:14:39.462Z,107.83
2018-12-13T02:17:43.043Z,108.02
2018-12-13T02:20:46.573Z,107.96
2018-12-13T02:23:50.211Z,108.03
2018-12-13T02:26:53.731Z,108.00
2018-12-13T02:29:57.438Z,108.09
2018-12-13T02:33:00.956Z,108.18
2018-12-13T02:36:05.713Z,108.35
2018-12-13T02:39:09.323Z,108.38
2018-12-13T02:42:13.139Z,108.35
2018-12-13T02:45:16.782Z,108.36
2018-12-13T02:48:20.433Z,108.36
2018-12-13T02:51:24.029Z,108.46
2018-12-13T02:54:27.518Z,108.54
2018-12-13T02:57:31.139Z,108.53
2018-12-13T03:00:35.121Z,108.61
2018-12-13T03:03:38.597Z,108.56
2018-12-13T03:06:43.001Z,108.43
2018-12-13T03:09:46.548Z,108.47
2018-12-13T03:12:50.351Z,108.56
2018-12-13T03:15:54.001Z,108.70
2018-12-13T03:18:57.633Z,108.80
2018-12-13T03:22:01.206Z,108.55
2018-12-13T03:25:05.287Z,108.48
2018-12-13T03:28:08.868Z,108.35
2018-12-13T03:31:12.369Z,107.98
2018-12-13T03:34:15.948Z,107.51
2018-12-13T03:37:20.827Z,107.45
2018-12-13T03:40:24.724Z,107.47
2018-12-13T03:43:28.339Z,107.67
2018-12-13T03:46:31.898Z,107.83
2018-12-13T03:49:35.411Z,108.00
2018-12-13T03:52:39.028Z,108.18
2018-12-13T03:55:42.587Z,108.40
2018-12-13T03:58:46.137Z,108.51
2018-12-13T04:01:49.621Z,108.33
2018-12-13T04:04:53.208Z,108.35
2018-12-13T04:07:56.787Z,108.18
2018-12-13T04:11:00.345Z,108.31
2018-12-13T04:14:04.217Z,108.04
2018-12-13T04:17:07.682Z,107.78
2018-12-13T04:20:11.198Z,107.66
2018-12-13T04:23:14.711Z,107.69
2018-12-13T04:26:18.352Z,107.76
2018-12-13T04:29:22.007Z,107.96
2018-12-13T04:32:25.539Z,108.14
2018-12-13T04:35:28.992Z,107.98
2018-12-13T04:38:32.586Z,107.78
2018-12-13T04:41:36.385Z,107.97
2018-12-13T04:44:40.056Z,108.04
2018-12-13T04:47:43.610Z,108.02
2018-12-13T04:50:47.137Z,108.31
2018-12-13T04:53:50.661Z,108.45
2018-12-13T04:56:54.211Z,108.27
2018-12-13T04:59:57.712Z,108.38
2018-12-13T05:03:01.172Z,108.46
2018-12-13T05:06:04.920Z,108.44
2018-12-13T05:09:08.870Z,108.66
2018-12-13T05:12:12.439Z,108.82
2018-12-13T05:15:15.931Z,108.95
2018-12-13T05:18:19.451Z,109.17
2018-12-13T05:21:23.038Z,109.45
2018-12-13T05:24:26.696Z,109.60
2018-12-13T05:27:30.235Z,109.61
2018-12-13T05:30:35.324Z,109.66
2018-12-13T05:33:38.787Z,109.51
2018-12-13T05:36:42.355Z,109.34
2018-12-13T05:39:45.870Z,109.20
2018-12-13T05:42:49.410Z,108.96
2018-12-13T05:45:53.066Z,108.83
2018-12-13T05:48:56.797Z,108.13
2018-12-13T05:52:00.539Z,107.77
2018-12-13T05:55:04.408Z,106.74
2018-12-13T05:58:07.982Z,105.32
2018-12-13T06:01:11.565Z,104.60
2018-12-13T06:04:15.185Z,104.39
2018-12-13T06:07:18.746Z,104.03
2018-12-13T06:10:22.285Z,104.08
2018-12-13T06:13:25.970Z,103.80
2018-12-13T06:16:29.516Z,103.71
2018-12-13T06:19:33.097Z,103.77
2018-12-13T06:22:36.625Z,103.55
2018-12-13T06:25:40.158Z,103.29
2018-12-13T06:28:43.643Z,103.61
2018-12-13T06:31:47.130Z,103.47
2018-12-13T06:34:50.818Z,103.39
2018-12-13T06:37:54.387Z,103.68
2018-12-13T06:40:58.018Z,103.55
2018-12-13T06:44:01.543Z,103.55
2018-12-13T06:47:05.496Z,104.14
2018-12-13T06:50:09.164Z,104.14
2018-12-13T06:53:12.682Z,103.94
2018-12-13T06:56:16.237Z,103.75
2018-12-13T06:59:19.758Z,103.68
2018-12-13T07:02:23.212Z,103.31
2018-12-13T07:05:26.892Z,103.91
2018-12-13T07:08:30.561Z,103.75
2018-12-13T07:11:35.532Z,104.13
2018-12-13T07:14:39.162Z,104.20
2018-12-13T07:17:42.680Z,104.30
2018-12-13T07:20:46.171Z,104.36
2018-12-13T07:23:49.926Z,104.12
2018-12-13T07:26:53.411Z,104.45
2018-12-13T07:29:57.046Z,104.42
2018-12-13T07:33:00.596Z,104.27
2018-12-13T07:36:04.747Z,104.23
2018-12-13T07:39:10.102Z,103.85
2018-12-13T07:42:13.815Z,104.01
2018-12-13T07:45:17.376Z,104.00
2018-12-13T07:48:20.942Z,103.46
2018-12-13T07:51:24.478Z,103.91
2018-12-13T07:54:28.095Z,103.53
2018-12-13T07:57:31.646Z,103.72
2018-12-13T08:00:35.770Z,103.58
2018-12-13T08:03:39.513Z,103.21
2018-12-13T08:06:43.040Z,102.75
2018-12-13T08:09:46.606Z,103.04
2018-12-13T08:12:50.181Z,102.98
2018-12-13T08:15:53.857Z,103.01
2018-12-13T08:18:57.366Z,102.52
2018-12-13T08:22:00.926Z,103.01
2018-12-13T08:25:05.524Z,102.88
2018-12-13T08:28:09.236Z,102.85
2018-12-13T08:31:12.842Z,103.12
2018-12-13T08:34:16.523Z,103.59
2018-12-13T08:37:20.317Z,103.54
2018-12-13T08:40:23.931Z,103.19
2018-12-13T08:43:27.443Z,103.49
2018-12-13T08:46:36.343Z,103.65
2018-12-13T08:49:36.593Z,103.94
2018-12-13T08:52:40.200Z,104.20
2018-12-13T08:55:43.835Z,104.17
2018-12-13T08:58:47.363Z,103.84
2018-12-13T09:01:51.023Z,103.96
2018-12-13T09:04:54.601Z,104.15
2018-12-13T09:07:58.227Z,103.74
2018-12-13T09:11:01.918Z,103.81
2018-12-13T09:14:05.578Z,103.89
2018-12-13T09:17:09.202Z,103.24
2018-12-13T09:20:12.842Z,103.23
2018-12-13T09:23:16.538Z,103.05
2018-12-13T09:26:20.143Z,103.44
2018-12-13T09:29:23.666Z,103.83
2018-12-13T09:32:27.216Z,104.21
2018-12-13T09:35:30.798Z,104.15
2018-12-13T09:38:39.791Z,103.97
2018-12-13T09:41:41.541Z,103.60
2018-12-13T09:44:45.037Z,102.58
2018-12-13T09:47:48.550Z,101.09
2018-12-13T09:50:52.067Z,101.67
2018-12-13T09:53:55.603Z,101.04
2018-12-13T09:56:59.246Z,102.10
2018-12-13T10:00:03.292Z,101.46
2018-12-13T10:03:07.035Z,101.01
2018-12-13T10:06:10.652Z,101.75
2018-12-13T10:09:14.156Z,101.53
2018-12-13T10:12:17.742Z,102.62
2018-12-13T10:15:21.361Z,102.14
2018-12-13T10:18:24.837Z,102.47
2018-12-13T10:21:28.367Z,102.77
2018-12-13T10:24:31.839Z,102.26
2018-12-13T10:27:35.908Z,102.72
2018-12-13T10:30:39.406Z,101.98
2018-12-13T10:33:43.087Z,101.31
2018-12-13T10:36:46.733Z,100.85
2018-12-13T10:39:50.208Z,100.92
2018-12-13T10:42:53.790Z,101.77
2018-12-13T10:45:57.310Z,102.14
2018-12-13T10:49:00.873Z,101.72
2018-12-13T10:52:05.702Z,102.32
2018-12-13T10:55:09.281Z,101.59
2018-12-13T10:58:12.894Z,101.27
2018-12-13T11:01:21.982Z,101.46
2018-12-13T11:04:25.527Z,101.62
2018-12-13T11:07:29.031Z,101.98
2018-12-13T11:10:32.595Z,101.51
2018-12-13T11:13:36.228Z,99.73
2018-12-13T11:16:39.799Z,99.78
2018-12-13T11:19:43.290Z,100.95
2018-12-13T11:22:46.944Z,99.59
2018-12-13T11:25:50.420Z,98.84
2018-12-13T11:30:16.446Z,98.69
2018-12-13T11:33:20.066Z,99.39
2018-12-13T11:36:23.808Z,99.21
2018-12-13T11:39:27.370Z,99.22
2018-12-13T11:42:30.954Z,99.67
2018-12-13T11:45:36.367Z,99.44
2018-12-13T11:48:40.001Z,100.66
2018-12-13T11:51:43.668Z,100.98
2018-12-13T11:54:47.270Z,100.40
2018-12-13T11:57:50.796Z,100.69
2018-12-13T12:00:54.355Z,101.30
2018-12-13T12:03:57.916Z,101.74
2018-12-13T12:07:01.687Z,102.55
2018-12-13T12:10:06.191Z,102.65
2018-12-13T12:13:09.871Z,102.20
2018-12-13T12:16:13.536Z,101.91
2018-12-13T12:19:17.075Z,101.40
2018-12-13T12:22:20.588Z,102.06
2018-12-13T12:25:24.304Z,102.20
2018-12-13T12:28:27.844Z,102.67
2018-12-13T12:31:31.461Z,103.25
2018-12-13T12:34:36.486Z,103.25
2018-12-13T12:37:40.344Z,103.25
2018-12-13T12:40:43.836Z,102.97
2018-12-13T12:43:47.380Z,103.02
2018-12-13T12:46:50.995Z,102.89
2018-12-13T12:49:54.624Z,102.67
2018-12-13T12:52:58.182Z,102.78
2018-12-13T12:56:01.713Z,101.46
2018-12-13T12:59:05.669Z,101.21
2018-12-13T13:02:09.285Z,101.69
2018-12-13T13:05:12.784Z,102.70
2018-12-13T13:08:16.380Z,102.74
2018-12-13T13:11:19.866Z,102.95
2018-12-13T13:14:23.428Z,102.87
2018-12-13T13:17:27.094Z,102.58
2018-12-13T13:20:30.562Z,103.07
2018-12-13T13:23:34.416Z,103.53
2018-12-13T13:26:38.036Z,103.40
2018-12-13T13:29:41.541Z,103.84
2018-12-13T13:32:45.025Z,104.14
2018-12-13T13:35:48.575Z,103.81
2018-12-13T13:38:52.266Z,102.91
2018-12-13T13:41:55.887Z,102.94
2018-12-13T13:45:02.466Z,102.73
2018-12-13T13:48:06.024Z,103.45
2018-12-13T13:51:09.677Z,103.40
2018-12-13T13:54:13.261Z,102.55
2018-12-13T13:57:16.896Z,102.30
2018-12-13T14:00:20.617Z,101.68
2018-12-13T14:03:24.132Z,102.08
2018-12-13T14:06:27.644Z,102.41
2018-12-13T14:09:31.118Z,102.76
2018-12-13T14:12:34.710Z,101.88
2018-12-13T14:15:38.351Z,102.56
2018-12-13T14:18:41.843Z,102.17
2018-12-13T14:21:45.322Z,101.61
2018-12-13T14:24:48.875Z,101.30
2018-12-13T14:27:52.405Z,101.14
2018-12-13T14:30:55.921Z,101.42
2018-12-13T14:33:59.572Z,101.94
2018-12-13T14:37:03.206Z,101.33
2018-12-13T14:40:07.006Z,102.08
2018-12-13T14:43:10.634Z,102.19
2018-12-13T14:46:14.212Z,102.22
2018-12-13T14:49:17.680Z,102.21
2018-12-13T14:52:21.314Z,102.14
2018-12-13T14:55:24.848Z,101.62
2018-12-13T14:58:28.390Z,101.31
2018-12-13T15:01:32.070Z,101.15
2018-12-13T15:04:36.970Z,101.52
2018-12-13T15:07:40.511Z,101.14
2018-12-13T15:10:44.178Z,100.78
2018-12-13T15:13:47.740Z,100.75
2018-12-13T15:16:51.330Z,100.38
2018-12-13T15:19:54.881Z,100.76
2018-12-13T15:22:58.596Z,100.60
2018-12-13T15:26:02.252Z,100.66
2018-12-13T15:29:06.161Z,100.84
2018-12-13T15:32:09.730Z,100.46
2018-12-13T15:35:13.664Z,100.19
2018-12-13T15:38:17.224Z,100.30
2018-12-13T15:41:20.736Z,100.68
2018-12-13T15:44:24.251Z,100.44
2018-12-13T15:47:28.029Z,100.19
2018-12-13T15:50:31.511Z,100.49
2018-12-13T15:53:34.990Z,100.64
2018-12-13T15:56:38.909Z,101.06
2018-12-13T15:59:42.439Z,100.28
2018-12-13T16:02:46.059Z,100.59
2018-12-13T16:05:49.512Z,100.76
2018-12-13T16:08:53.022Z,101.44
2018-12-13T16:11:56.499Z,101.52
2018-12-13T16:15:00.090Z,102.05
2018-12-13T16:18:03.743Z,101.14
2018-12-13T16:21:07.204Z,101.55
2018-12-13T16:24:10.726Z,101.90
2018-12-13T16:27:14.172Z,101.02
2018-12-13T16:30:18.007Z,100.78
2018-12-13T16:33:21.570Z,100.68
2018-12-13T16:36:25.194Z,100.76
2018-12-13T16:39:28.658Z,100.37
2018-12-13T16:42:32.306Z,100.74
2018-12-13T16:45:37.256Z,100.60
2018-12-13T16:48:40.900Z,100.62
2018-12-13T16:51:44.385Z,101.32
2018-12-13T16:54:48.000Z,102.26
2018-12-13T16:57:51.652Z,102.91
2018-12-13T17:00:55.290Z,103.34
2018-12-13T17:03:59.055Z,103.46
2018-12-13T17:07:02.558Z,103.44
2018-12-13T17:10:08.297Z,103.21
2018-12-13T17:13:11.791Z,103.28
2018-12-13T17:16:15.351Z,102.79
2018-12-13T17:19:18.947Z,103.17
2018-12-13T17:22:22.631Z,103.07
2018-12-13T17:25:26.250Z,102.91
2018-12-13T17:28:29.835Z,102.76
2018-12-13T17:31:33.289Z,102.30
2018-12-13T17:34:37.486Z,101.54
2018-12-13T17:37:40.955Z,101.53
2018-12-13T17:40:44.434Z,101.46
2018-12-13T17:43:48.024Z,101.52
2018-12-13T17:46:51.511Z,101.30
2018-12-13T17:49:54.984Z,102.33
2018-12-13T17:52:58.726Z,102.52
2018-12-13T17:56:02.189Z,102.49
2018-12-13T17:59:06.567Z,102.41
2018-12-13T18:02:10.091Z,102.20
2018-12-13T18:05:13.751Z,102.17
2018-12-13T18:08:17.256Z,102.36
2018-12-13T18:11:20.774Z,102.49
2018-12-13T18:14:24.576Z,102.38
2018-12-13T18:17:28.130Z,102.46
2018-12-13T18:20:31.633Z,102.55
2018-12-13T18:23:35.353Z,102.47
2018-12-13T18:26:38.931Z,102.37
2018-12-13T18:29:42.460Z,102.18
2018-12-13T18:32:45.994Z,102.04
2018-12-13T18:35:49.521Z,101.94
2018-12-13T18:38:53.339Z,101.98
2018-12-13T18:41:56.898Z,101.96
2018-12-13T18:45:00.655Z,101.94
2018-12-13T18:48:04.486Z,102.12
2018-12-13T18:51:07.977Z,103.04
2018-12-13T18:54:11.510Z,102.94
2018-12-13T18:57:14.997Z,102.61
2018-12-13T19:00:18.619Z,102.17
2018-12-13T19:03:22.284Z,102.52
2018-12-13T19:06:25.911Z,102.39
2018-12-13T19:09:29.443Z,102.34
2018-12-13T19:12:33.825Z,102.28
2018-12-13T19:15:37.784Z,102.33
2018-12-13T19:18:41.390Z,102.23
2018-12-13T19:21:45.017Z,102.78
2018-12-13T19:24:48.455Z,103.42
2018-12-13T19:27:52.038Z,103.29
2018-12-13T19:30:55.589Z,103.13
2018-12-13T19:33:59.130Z,103.02
2018-12-13T19:37:02.624Z,103.23
2018-12-13T19:40:07.483Z,103.12
2018-12-13T19:43:10.989Z,102.97
2018-12-13T19:46:14.510Z,103.15
2018-12-13T19:49:18.002Z,102.67
2018-12-13T19:52:21.511Z,102.94
2018-12-13T19:55:25.510Z,102.71
2018-12-13T19:58:29.090Z,102.77
2018-12-13T20:01:32.733Z,102.80
2018-12-13T20:04:37.950Z,102.55
2018-12-13T20:07:41.529Z,102.73
2018-12-13T20:10:45.113Z,102.77
2018-12-13T20:13:48.579Z,102.90
2018-12-13T20:16:52.138Z,103.26
2018-12-13T20:19:55.689Z,103.24
2018-12-13T20:22:59.275Z,102.80
2018-12-13T20:26:02.933Z,103.38
2018-12-13T20:29:07.232Z,103.56
2018-12-13T20:32:10.773Z,103.69
2018-12-13T20:35:14.780Z,103.27
2018-12-13T20:38:18.298Z,102.68
2018-12-13T20:41:21.779Z,102.82
2018-12-13T20:44:25.314Z,103.25
2018-12-13T20:47:28.834Z,103.13
2018-12-13T20:50:32.392Z,102.94
2018-12-13T20:53:35.953Z,102.74
2018-12-13T20:56:39.649Z,103.23
2018-12-13T20:59:43.215Z,103.31
2018-12-13T21:02:46.738Z,102.96
2018-12-13T21:05:50.262Z,102.99
2018-12-13T21:08:53.799Z,103.46
2018-12-13T21:11:57.363Z,103.69
2018-12-13T21:15:00.909Z,103.71
2018-12-13T21:18:04.417Z,103.84
2018-12-13T21:21:07.972Z,103.85
2018-12-13T21:24:11.469Z,103.79
2018-12-13T21:27:15.092Z,104.32
2018-12-13T21:30:18.748Z,104.42
2018-12-13T21:33:22.173Z,104.48
2018-12-13T21:36:25.913Z,104.41
2018-12-13T21:39:29.389Z,104.42
2018-12-13T21:42:32.874Z,104.41
2018-12-13T21:45:36.413Z,104.46
2018-12-13T21:48:39.883Z,104.23
2018-12-13T21:51:43.409Z,104.19
2018-12-13T21:54:47.076Z,104.39
2018-12-13T21:57:50.643Z,104.35
2018-12-13T22:00:54.164Z,104.31
2018-12-13T22:03:57.692Z,104.13
2018-12-13T22:07:01.199Z,104.00
2018-12-13T22:10:05.972Z,103.44
2018-12-13T22:13:09.449Z,103.78
2018-12-13T22:16:12.923Z,103.88
2018-12-13T22:19:16.433Z,103.59
2018-12-13T22:22:19.961Z,103.42
2018-12-13T22:25:24.369Z,104.10
2018-12-13T22:28:27.887Z,104.29
2018-12-13T22:31:31.413Z,104.42
2018-12-13T22:34:36.084Z,104.54
2018-12-13T22:37:39.782Z,104.83
2018-12-13T22:40:43.290Z,104.74
2018-12-13T22:43:46.802Z,104.78
2018-12-13T22:46:50.428Z,105.00
2018-12-13T22:49:53.983Z,105.13
2018-12-13T22:52:57.458Z,105.39
2018-12-13T22:56:01.043Z,105.43
2018-12-13T22:59:04.933Z,105.19
2018-12-13T23:02:08.549Z,105.14
2018-12-13T23:05:12.041Z,105.19
2018-12-13T23:08:15.687Z,105.17
2018-12-13T23:11:19.238Z,105.28
2018-12-13T23:14:22.840Z,105.06
2018-12-13T23:17:26.447Z,104.99
2018-12-13T23:20:30.033Z,104.60
2018-12-13T23:23:33.566Z,104.03
2018-12-13T23:32:10.659Z,104.20
2018-12-13T23:35:14.276Z,104.47
2018-12-13T23:38:17.742Z,103.95
2018-12-13T23:41:21.280Z,104.26
2018-12-13T23:44:24.762Z,104.49
2018-12-13T23:47:28.339Z,104.66
2018-12-13T23:50:31.978Z,104.19
2018-12-13T23:53:35.686Z,104.15
2018-12-13T23:56:39.201Z,104.20
2018-12-13T23:59:42.743Z,104.09
